Great Sand Dunes National Mo, Colorado
Current Conditions -  °F | °C
As of 10:52 PM on Friday 19 Dec 2014 (Local Time) from KALS Reporting Station
Clear Clear  
Wind Chill:   Ceiling: Unl
Heat Index: 13°   Visibility: 10mi
Dew Point:   Wind: 6mph
Humidity: 81%   Direction: 10°N
Pressure: 30.16"   Gusts: NA
Location:  37.469°N, 105.836°W
Report Text: KALS 200552Z AUTO 01005KT 10SM CLR M11/M13 A3016 RMK AO2 SLP266 T11061133 11039 21117 53002
Loading
Personal Weather Stations






























Interactive Weather Map New forecast layout! Learn more

10-Day Weather Forecast

Advertisements
Track Severe Weather on mobile